![]() |
EMODnet Physics ERDDAP
Easier access to scientific data |
log in|
Brought to you by EMODnet Physics |
| Dataset Title: | NDBC - Collection of dew point temperature (DEWT) TimeSeries - IN SITU MultiPointTimeSeriesObservation
|
| Institution: | NDBC (Dataset ID: TS_DEWT_NDBC) |
| Information: | Summary
| License
| FGDC
| ISO 19115
| Metadata
| Background
| Subset
| Data Access Form
| Make a graph
|
| Name | Last modified | Size | Description | |
|---|---|---|---|---|
| Parent Directory | - | - | ||
| PTLA2_TS_DEWT_012013.nc | 24-Dec-2024 07:41 | 450463 | ||
| PTLA2_TS_DEWT_012014.nc | 24-Dec-2024 07:43 | 450160 | ||
| PTLA2_TS_DEWT_012015.nc | 24-Dec-2024 07:44 | 451375 | ||
| PTLA2_TS_DEWT_012016.nc | 24-Dec-2024 07:45 | 450286 | ||
| PTLA2_TS_DEWT_012017.nc | 24-Dec-2024 07:47 | 429887 | ||
| PTLA2_TS_DEWT_012018.nc | 24-Dec-2024 07:48 | 450745 | ||
| PTLA2_TS_DEWT_012019.nc | 24-Dec-2024 07:51 | 426926 | ||
| PTLA2_TS_DEWT_012020.nc | 24-Dec-2024 07:55 | 450774 | ||
| PTLA2_TS_DEWT_012021.nc | 24-Dec-2024 07:58 | 450435 | ||
| PTLA2_TS_DEWT_012022.nc | 24-Dec-2024 08:02 | 451179 | ||
| PTLA2_TS_DEWT_012023.nc | 24-Dec-2024 08:05 | 451731 | ||
| PTLA2_TS_DEWT_012025.nc | 07-Feb-2025 11:15 | 429890 | ||
| PTLA2_TS_DEWT_012026.nc | 02-Feb-2026 16:47 | 435801 | ||
| PTLA2_TS_DEWT_022013.nc | 24-Dec-2024 07:42 | 450819 | ||
| PTLA2_TS_DEWT_022014.nc | 24-Dec-2024 07:43 | 450349 | ||
| PTLA2_TS_DEWT_022015.nc | 24-Dec-2024 07:44 | 449978 | ||
| PTLA2_TS_DEWT_022016.nc | 24-Dec-2024 07:46 | 435217 | ||
| PTLA2_TS_DEWT_022017.nc | 24-Dec-2024 07:47 | 450173 | ||
| PTLA2_TS_DEWT_022018.nc | 24-Dec-2024 07:48 | 418864 | ||
| PTLA2_TS_DEWT_022019.nc | 24-Dec-2024 07:51 | 450132 | ||
| PTLA2_TS_DEWT_022020.nc | 24-Dec-2024 07:55 | 429889 | ||
| PTLA2_TS_DEWT_022021.nc | 24-Dec-2024 07:58 | 429890 | ||
| PTLA2_TS_DEWT_022022.nc | 24-Dec-2024 08:02 | 450902 | ||
| PTLA2_TS_DEWT_022023.nc | 24-Dec-2024 08:06 | 435136 | ||
| PTLA2_TS_DEWT_022025.nc | 01-Mar-2025 06:08 | 429309 | ||
| PTLA2_TS_DEWT_022026.nc | 01-Mar-2026 04:56 | 429327 | ||
| PTLA2_TS_DEWT_032014.nc | 24-Dec-2024 07:43 | 429317 | ||
| PTLA2_TS_DEWT_032016.nc | 24-Dec-2024 07:46 | 428828 | ||
| PTLA2_TS_DEWT_032018.nc | 24-Dec-2024 07:48 | 447756 | ||
| PTLA2_TS_DEWT_032019.nc | 24-Dec-2024 07:52 | 429339 | ||
| PTLA2_TS_DEWT_032020.nc | 24-Dec-2024 07:55 | 429340 | ||
| PTLA2_TS_DEWT_032021.nc | 24-Dec-2024 07:59 | 432390 | ||
| PTLA2_TS_DEWT_032022.nc | 24-Dec-2024 08:02 | 429318 | ||
| PTLA2_TS_DEWT_032023.nc | 24-Dec-2024 08:06 | 449307 | ||
| PTLA2_TS_DEWT_032025.nc | 02-Apr-2025 04:00 | 449691 | ||
| PTLA2_TS_DEWT_032026.nc | 26-Mar-2026 06:19 | 437400 | ||
| PTLA2_TS_DEWT_042014.nc | 24-Dec-2024 07:43 | 449904 | ||
| PTLA2_TS_DEWT_042016.nc | 24-Dec-2024 07:46 | 449877 | ||
| PTLA2_TS_DEWT_042018.nc | 24-Dec-2024 07:49 | 449256 | ||
| PTLA2_TS_DEWT_042019.nc | 24-Dec-2024 07:52 | 426207 | ||
| PTLA2_TS_DEWT_042020.nc | 24-Dec-2024 07:55 | 449036 | ||
| PTLA2_TS_DEWT_042021.nc | 24-Dec-2024 07:59 | 449419 | ||
| PTLA2_TS_DEWT_042022.nc | 24-Dec-2024 08:03 | 449471 | ||
| PTLA2_TS_DEWT_042023.nc | 24-Dec-2024 08:06 | 429541 | ||
| PTLA2_TS_DEWT_042025.nc | 01-May-2025 06:12 | 448843 | ||
| PTLA2_TS_DEWT_052014.nc | 24-Dec-2024 07:43 | 435105 | ||
| PTLA2_TS_DEWT_052015.nc | 24-Dec-2024 07:45 | 449721 | ||
| PTLA2_TS_DEWT_052016.nc | 24-Dec-2024 07:46 | 448707 | ||
| PTLA2_TS_DEWT_052018.nc | 24-Dec-2024 07:49 | 448840 | ||
| PTLA2_TS_DEWT_052019.nc | 24-Dec-2024 07:52 | 450190 | ||
| PTLA2_TS_DEWT_052020.nc | 24-Dec-2024 07:56 | 429546 | ||
| PTLA2_TS_DEWT_052021.nc | 24-Dec-2024 07:59 | 450651 | ||
| PTLA2_TS_DEWT_052022.nc | 24-Dec-2024 08:03 | 449355 | ||
| PTLA2_TS_DEWT_052023.nc | 24-Dec-2024 08:07 | 449423 | ||
| PTLA2_TS_DEWT_052025.nc | 01-Jun-2025 09:36 | 448787 | ||
| PTLA2_TS_DEWT_062014.nc | 24-Dec-2024 07:43 | 449255 | ||
| PTLA2_TS_DEWT_062015.nc | 24-Dec-2024 07:45 | 449345 | ||
| PTLA2_TS_DEWT_062016.nc | 24-Dec-2024 07:46 | 448591 | ||
| PTLA2_TS_DEWT_062018.nc | 24-Dec-2024 07:49 | 432819 | ||
| PTLA2_TS_DEWT_062019.nc | 24-Dec-2024 07:53 | 429547 | ||
| PTLA2_TS_DEWT_062020.nc | 24-Dec-2024 07:56 | 429546 | ||
| PTLA2_TS_DEWT_062021.nc | 24-Dec-2024 08:00 | 449162 | ||
| PTLA2_TS_DEWT_062022.nc | 24-Dec-2024 08:03 | 429549 | ||
| PTLA2_TS_DEWT_062023.nc | 24-Dec-2024 08:07 | 420004 | ||
| PTLA2_TS_DEWT_062025.nc | 01-Jul-2025 07:16 | 429656 | ||
| PTLA2_TS_DEWT_072014.nc | 24-Dec-2024 07:44 | 429661 | ||
| PTLA2_TS_DEWT_072015.nc | 24-Dec-2024 07:45 | 429469 | ||
| PTLA2_TS_DEWT_072016.nc | 24-Dec-2024 07:46 | 429669 | ||
| PTLA2_TS_DEWT_072018.nc | 24-Dec-2024 07:49 | 450402 | ||
| PTLA2_TS_DEWT_072019.nc | 24-Dec-2024 07:53 | 429333 | ||
| PTLA2_TS_DEWT_072020.nc | 24-Dec-2024 07:56 | 429665 | ||
| PTLA2_TS_DEWT_072021.nc | 24-Dec-2024 08:00 | 449852 | ||
| PTLA2_TS_DEWT_072022.nc | 24-Dec-2024 08:04 | 429664 | ||
| PTLA2_TS_DEWT_072023.nc | 24-Dec-2024 08:07 | 452214 | ||
| PTLA2_TS_DEWT_072025.nc | 01-Aug-2025 07:41 | 450841 | ||
| PTLA2_TS_DEWT_082014.nc | 24-Dec-2024 07:44 | 450926 | ||
| PTLA2_TS_DEWT_082016.nc | 24-Dec-2024 07:46 | 451248 | ||
| PTLA2_TS_DEWT_082018.nc | 24-Dec-2024 07:50 | 451459 | ||
| PTLA2_TS_DEWT_082019.nc | 24-Dec-2024 07:53 | 451615 | ||
| PTLA2_TS_DEWT_082020.nc | 24-Dec-2024 07:57 | 450243 | ||
| PTLA2_TS_DEWT_082021.nc | 24-Dec-2024 08:00 | 451118 | ||
| PTLA2_TS_DEWT_082022.nc | 24-Dec-2024 08:04 | 451119 | ||
| PTLA2_TS_DEWT_082023.nc | 24-Dec-2024 08:08 | 441659 | ||
| PTLA2_TS_DEWT_082025.nc | 01-Sep-2025 08:54 | 429885 | ||
| PTLA2_TS_DEWT_092013.nc | 24-Dec-2024 07:42 | 449765 | ||
| PTLA2_TS_DEWT_092014.nc | 24-Dec-2024 07:44 | 450185 | ||
| PTLA2_TS_DEWT_092016.nc | 24-Dec-2024 07:47 | 450991 | ||
| PTLA2_TS_DEWT_092018.nc | 24-Dec-2024 07:50 | 451231 | ||
| PTLA2_TS_DEWT_092019.nc | 24-Dec-2024 07:54 | 451367 | ||
| PTLA2_TS_DEWT_092020.nc | 24-Dec-2024 07:57 | 450281 | ||
| PTLA2_TS_DEWT_092021.nc | 24-Dec-2024 08:00 | 429889 | ||
| PTLA2_TS_DEWT_092022.nc | 24-Dec-2024 08:04 | 450630 | ||
| PTLA2_TS_DEWT_092023.nc | 24-Dec-2024 08:08 | 449886 | ||
| PTLA2_TS_DEWT_092025.nc | 01-Oct-2025 09:22 | 449984 | ||
| PTLA2_TS_DEWT_102013.nc | 24-Dec-2024 07:43 | 449500 | ||
| PTLA2_TS_DEWT_102014.nc | 24-Dec-2024 07:44 | 451512 | ||
| PTLA2_TS_DEWT_102016.nc | 24-Dec-2024 07:47 | 449207 | ||
| PTLA2_TS_DEWT_102018.nc | 24-Dec-2024 07:50 | 450935 | ||
| PTLA2_TS_DEWT_102019.nc | 24-Dec-2024 07:54 | 429886 | ||
| PTLA2_TS_DEWT_102020.nc | 24-Dec-2024 07:57 | 429871 | ||
| PTLA2_TS_DEWT_102021.nc | 24-Dec-2024 08:01 | 429868 | ||
| PTLA2_TS_DEWT_102022.nc | 24-Dec-2024 08:04 | 450785 | ||
| PTLA2_TS_DEWT_102023.nc | 24-Dec-2024 08:08 | 429888 | ||
| PTLA2_TS_DEWT_102025.nc | 01-Nov-2025 08:51 | 438107 | ||
| PTLA2_TS_DEWT_112012.nc | 24-Dec-2024 07:41 | 429320 | ||
| PTLA2_TS_DEWT_112013.nc | 24-Dec-2024 07:43 | 429329 | ||
| PTLA2_TS_DEWT_112014.nc | 24-Dec-2024 07:44 | 429322 | ||
| PTLA2_TS_DEWT_112015.nc | 24-Dec-2024 07:45 | 428368 | ||
| PTLA2_TS_DEWT_112016.nc | 24-Dec-2024 07:47 | 429344 | ||
| PTLA2_TS_DEWT_112018.nc | 24-Dec-2024 07:51 | 450395 | ||
| PTLA2_TS_DEWT_112019.nc | 24-Dec-2024 07:54 | 429345 | ||
| PTLA2_TS_DEWT_112020.nc | 24-Dec-2024 07:58 | 429343 | ||
| PTLA2_TS_DEWT_112021.nc | 24-Dec-2024 08:01 | 449962 | ||
| PTLA2_TS_DEWT_112022.nc | 24-Dec-2024 08:05 | 447086 | ||
| PTLA2_TS_DEWT_112023.nc | 24-Dec-2024 08:09 | 450154 | ||
| PTLA2_TS_DEWT_112024.nc | 17-Jan-2025 19:53 | 433031 | ||
| PTLA2_TS_DEWT_112025.nc | 01-Dec-2025 12:52 | 449219 | ||
| PTLA2_TS_DEWT_122012.nc | 24-Dec-2024 07:41 | 450038 | ||
| PTLA2_TS_DEWT_122013.nc | 24-Dec-2024 07:43 | 449172 | ||
| PTLA2_TS_DEWT_122014.nc | 24-Dec-2024 07:44 | 449978 | ||
| PTLA2_TS_DEWT_122015.nc | 24-Dec-2024 07:45 | 448502 | ||
| PTLA2_TS_DEWT_122016.nc | 24-Dec-2024 07:47 | 450699 | ||
| PTLA2_TS_DEWT_122017.nc | 24-Dec-2024 07:47 | 449830 | ||
| PTLA2_TS_DEWT_122018.nc | 24-Dec-2024 07:51 | 450117 | ||
| PTLA2_TS_DEWT_122019.nc | 24-Dec-2024 07:54 | 429548 | ||
| PTLA2_TS_DEWT_122020.nc | 24-Dec-2024 07:58 | 449679 | ||
| PTLA2_TS_DEWT_122021.nc | 24-Dec-2024 08:01 | 428391 | ||
| PTLA2_TS_DEWT_122022.nc | 24-Dec-2024 08:05 | 450492 | ||
| PTLA2_TS_DEWT_122023.nc | 24-Dec-2024 08:09 | 449395 | ||
| PTLA2_TS_DEWT_122024.nc | 22-Jan-2025 19:52 | 450632 | ||
| PTLA2_TS_DEWT_122025.nc | 01-Jan-2026 05:08 | 450452 | ||